Time;durP1;ratioP1;P1;durP2;ratioP2;P2;SDS_P1;SDS_P2;PMS_P1;PMS_P2;Temp;Humidity;BMP_temperature;BMP_pressure;BME280_temperature;BME280_humidity;BME280_pressure;Samples;Min_cycle;Max_cycle;Signal;HPM_P1;HPM_P2
2023/10/05 00:03:02;;;;;;;0.47;0.40;;;14.40;85.10;;;;;;4715770;30;20474;-78
2023/10/05 00:05:28;;;;;;;0.65;0.43;;;14.50;85.20;;;;;;4728544;30;20055;-78
2023/10/05 00:07:54;;;;;;;2.20;0.70;;;14.50;85.20;;;;;;4734686;30;20044;-78
2023/10/05 00:10:20;;;;;;;2.08;0.55;;;14.50;85.20;;;;;;4728284;30;20063;-78
2023/10/05 00:12:47;;;;;;;0.80;0.50;;;14.50;85.20;;;;;;4738551;30;20131;-78
2023/10/05 00:15:14;;;;;;;1.88;0.68;;;14.50;85.20;;;;;;4741203;30;20037;-78
2023/10/05 00:17:41;;;;;;;0.88;0.40;;;14.50;85.20;;;;;;4723610;30;20036;-77
2023/10/05 00:20:15;;;;;;;1.15;0.63;;;14.40;85.20;;;;;;4739470;30;20059;-77
2023/10/05 00:22:40;;;;;;;0.55;0.50;;;14.60;85.30;;;;;;4738386;30;20098;-78
2023/10/05 00:25:09;;;;;;;0.90;0.47;;;14.50;85.30;;;;;;4727396;30;20080;-78
2023/10/05 00:27:36;;;;;;;1.45;0.50;;;14.50;85.30;;;;;;4725640;30;20056;-78
2023/10/05 00:30:02;;;;;;;0.95;0.50;;;14.50;85.30;;;;;;4758162;30;20496;-78
2023/10/05 00:32:38;;;;;;;0.88;0.50;;;14.50;85.30;;;;;;4744875;30;20045;-78
2023/10/05 00:37:44;;;;;;;0.88;0.50;;;14.50;85.50;;;;;;4742183;30;20048;-78
2023/10/05 00:40:17;;;;;;;1.08;0.57;;;14.50;85.50;;;;;;4728614;30;20120;-77
2023/10/05 00:42:43;;;;;;;0.95;0.60;;;14.50;85.60;;;;;;4725010;30;20537;-78
2023/10/05 00:45:11;;;;;;;0.70;0.50;;;14.50;85.70;;;;;;4741840;30;20500;-78
2023/10/05 00:47:38;;;;;;;1.38;0.52;;;14.50;85.70;;;;;;4760016;30;20048;-78
2023/10/05 00:50:04;;;;;;;0.68;0.40;;;14.50;85.70;;;;;;4754432;30;20561;-78
2023/10/05 00:52:33;;;;;;;0.80;0.50;;;14.40;85.70;;;;;;4741268;30;20083;-78
2023/10/05 00:55:06;;;;;;;0.40;0.40;;;14.50;85.80;;;;;;4728058;30;20037;-77
2023/10/05 00:57:33;;;;;;;1.88;0.50;;;14.50;85.80;;;;;;4726265;30;20150;-77
2023/10/05 01:03:10;;;;;;;1.50;0.60;;;14.40;86.50;;;;;;4742330;30;20482;-78
2023/10/05 01:05:36;;;;;;;2.35;0.50;;;14.50;85.90;;;;;;4747632;30;20056;-79
2023/10/05 01:08:04;;;;;;;1.13;0.70;;;14.50;85.90;;;;;;4729812;30;20060;-78
2023/10/05 01:10:42;;;;;;;1.00;0.60;;;14.50;85.90;;;;;;4731516;30;20503;-78
2023/10/05 01:13:34;;;;;;;2.50;0.75;;;14.50;86.00;;;;;;4748322;30;20124;-78
2023/10/05 01:16:15;;;;;;;0.70;0.50;;;14.50;86.10;;;;;;4740374;30;20105;-77
2023/10/05 01:18:41;;;;;;;;;;;14.50;86.00;;;;;;4756370;30;20044;-78
2023/10/05 01:21:09;;;;;;;0.40;0.40;;;14.50;86.00;;;;;;4754412;30;19968;-78
2023/10/05 01:23:38;;;;;;;2.92;0.52;;;14.40;86.00;;;;;;4746754;30;20467;-78
2023/10/05 01:26:13;;;;;;;2.30;0.55;;;14.40;86.00;;;;;;4746140;30;20059;-77
2023/10/05 01:28:41;;;;;;;1.10;0.52;;;14.40;86.00;;;;;;4746803;30;20052;-79
2023/10/05 01:31:14;;;;;;;1.42;0.60;;;14.40;86.00;;;;;;4731773;30;20560;-78
2023/10/05 01:33:42;;;;;;;0.80;0.55;;;14.40;86.10;;;;;;4740467;30;20393;-78
2023/10/05 01:36:08;;;;;;;3.13;0.60;;;14.40;86.10;;;;;;4727835;30;20036;-77
2023/10/05 01:38:39;;;;;;;0.95;0.57;;;14.40;86.20;;;;;;4727029;30;20059;-78
2023/10/05 01:41:06;;;;;;;2.33;0.65;;;14.40;86.20;;;;;;4716408;30;20486;-78
2023/10/05 01:43:34;;;;;;;0.90;0.60;;;14.30;86.30;;;;;;4755983;30;20036;-78
2023/10/05 01:46:00;;;;;;;0.50;0.40;;;14.30;86.30;;;;;;4742135;30;20867;-78
2023/10/05 01:48:28;;;;;;;1.23;0.52;;;14.30;86.40;;;;;;4745025;30;20037;-78
2023/10/05 01:51:01;;;;;;;1.75;0.60;;;14.20;86.30;;;;;;4744353;30;20043;-78
2023/10/05 01:53:26;;;;;;;0.80;0.47;;;14.20;86.50;;;;;;4728163;30;20065;-78
2023/10/05 01:55:53;;;;;;;2.15;0.60;;;14.20;86.60;;;;;;4743272;30;20028;-78
2023/10/05 01:58:22;;;;;;;0.93;0.60;;;14.10;86.60;;;;;;4743582;30;20040;-77
2023/10/05 02:00:49;;;;;;;1.02;0.70;;;14.10;86.70;;;;;;4743708;30;20489;-78
2023/10/05 02:03:17;;;;;;;2.03;0.63;;;14.10;86.70;;;;;;4727945;30;20067;-77
2023/10/05 02:05:44;;;;;;;0.93;0.63;;;14.10;86.70;;;;;;4738886;30;20068;-77
2023/10/05 02:08:12;;;;;;;0.50;0.38;;;14.10;86.80;;;;;;4756236;30;20492;-77
2023/10/05 02:10:39;;;;;;;0.60;0.57;;;14.00;86.80;;;;;;4744362;30;20128;-77
2023/10/05 02:13:11;;;;;;;1.35;0.57;;;14.00;86.90;;;;;;4740821;30;20064;-78
2023/10/05 02:15:39;;;;;;;0.80;0.55;;;14.00;86.90;;;;;;4742232;30;20044;-79
2023/10/05 02:18:13;;;;;;;1.02;0.88;;;14.00;87.00;;;;;;4747582;30;20036;-77
2023/10/05 02:20:43;;;;;;;1.77;0.70;;;14.00;87.00;;;;;;4758187;30;20039;-78
2023/10/05 02:23:24;;;;;;;2.42;0.70;;;14.00;87.00;;;;;;4758003;30;20060;-78
2023/10/05 02:26:04;;;;;;;1.63;0.70;;;14.00;87.00;;;;;;4733218;30;20048;-81
2023/10/05 02:28:33;;;;;;;0.90;0.50;;;14.00;87.10;;;;;;4730604;30;20182;-77
2023/10/05 02:31:00;;;;;;;1.05;0.57;;;14.00;87.00;;;;;;4743606;30;20036;-77
2023/10/05 02:33:28;;;;;;;0.77;0.55;;;14.00;87.00;;;;;;4744110;30;20083;-78
2023/10/05 02:36:09;;;;;;;0.77;0.40;;;13.90;87.00;;;;;;4734776;30;20029;-78
2023/10/05 02:38:35;;;;;;;0.47;0.47;;;13.90;87.00;;;;;;4723707;30;20397;-78
2023/10/05 02:41:05;;;;;;;1.00;0.57;;;13.90;87.10;;;;;;4738049;30;20049;-77
2023/10/05 02:43:38;;;;;;;0.63;0.50;;;13.90;87.10;;;;;;4726060;30;20052;-77
2023/10/05 02:46:11;;;;;;;0.45;0.40;;;13.90;87.10;;;;;;4754932;30;20477;-77
2023/10/05 02:48:41;;;;;;;1.40;0.60;;;13.90;87.10;;;;;;4726048;30;20055;-77
2023/10/05 02:51:10;;;;;;;1.30;0.70;;;13.90;87.20;;;;;;4729266;30;20056;-78
2023/10/05 02:53:56;;;;;;;1.25;0.50;;;13.90;87.20;;;;;;4744283;30;20043;-78
2023/10/05 02:56:27;;;;;;;2.30;0.70;;;13.90;87.20;;;;;;4730249;30;20076;-78
2023/10/05 02:58:55;;;;;;;1.08;0.50;;;13.90;87.20;;;;;;4741557;30;20041;-78
2023/10/05 03:01:22;;;;;;;1.27;0.60;;;13.90;87.20;;;;;;4741464;30;20044;-76
2023/10/05 03:03:51;;;;;;;2.03;0.80;;;13.80;87.20;;;;;;4727436;30;20044;-78
2023/10/05 03:06:17;;;;;;;1.20;0.50;;;14.00;87.30;;;;;;4745830;30;20167;-78
2023/10/05 03:08:52;;;;;;;1.88;0.52;;;13.90;87.20;;;;;;4727580;30;20048;-78
2023/10/05 03:11:18;;;;;;;1.08;0.70;;;13.90;87.20;;;;;;4712573;30;20056;-78
2023/10/05 03:13:45;;;;;;;0.45;0.43;;;13.90;87.20;;;;;;4744434;30;20389;-78
2023/10/05 03:16:11;;;;;;;1.58;0.73;;;13.90;87.20;;;;;;4743537;30;20040;-78
2023/10/05 03:18:42;;;;;;;0.90;0.50;;;13.90;87.20;;;;;;4744189;30;20029;-78
2023/10/05 03:21:12;;;;;;;0.80;0.40;;;13.90;87.20;;;;;;4740755;30;20033;-77
2023/10/05 03:23:41;;;;;;;0.90;0.60;;;13.80;87.30;;;;;;4742197;30;20100;-78
2023/10/05 03:26:08;;;;;;;0.70;0.60;;;13.80;87.40;;;;;;4738751;30;20119;-78
2023/10/05 03:28:35;;;;;;;0.70;0.70;;;13.80;87.50;;;;;;4737724;30;20120;-78
2023/10/05 03:31:07;;;;;;;1.17;0.60;;;13.80;87.60;;;;;;4744751;30;20044;-79
2023/10/05 03:33:35;;;;;;;1.50;0.70;;;13.70;87.60;;;;;;4729451;30;20041;-79
2023/10/05 03:36:06;;;;;;;1.75;0.65;;;13.80;87.70;;;;;;4745625;30;20041;-78
2023/10/05 03:38:33;;;;;;;1.40;0.40;;;13.80;87.70;;;;;;4747422;30;20049;-78
2023/10/05 03:41:04;;;;;;;1.00;0.63;;;13.70;87.70;;;;;;4728178;30;20044;-78
2023/10/05 03:43:31;;;;;;;1.48;0.60;;;13.80;87.70;;;;;;4748314;30;20512;-79
2023/10/05 03:45:57;;;;;;;2.00;0.60;;;13.80;87.70;;;;;;4749565;30;20090;-78
2023/10/05 03:48:25;;;;;;;1.33;0.70;;;13.80;87.70;;;;;;4747863;30;20044;-79
2023/10/05 03:50:51;;;;;;;1.98;0.50;;;13.70;87.70;;;;;;4750176;30;20052;-78
2023/10/05 03:53:16;;;;;;;1.45;0.60;;;13.70;87.60;;;;;;4732881;30;20052;-78
2023/10/05 03:55:42;;;;;;;0.50;0.50;;;13.80;87.70;;;;;;4720799;30;20041;-79
2023/10/05 03:58:08;;;;;;;1.20;0.60;;;13.80;87.70;;;;;;4735006;30;20044;-79
2023/10/05 04:00:35;;;;;;;1.30;0.55;;;13.80;87.60;;;;;;4750763;30;20037;-78
2023/10/05 04:03:02;;;;;;;1.95;0.50;;;13.80;87.60;;;;;;4735518;30;20049;-78
2023/10/05 04:05:28;;;;;;;1.15;0.45;;;13.90;87.70;;;;;;4750400;30;20048;-78
2023/10/05 04:08:00;;;;;;;1.95;0.65;;;13.80;87.60;;;;;;4746393;30;20048;-78
2023/10/05 04:10:45;;;;;;;0.82;0.57;;;13.80;88.20;;;;;;4760853;30;20528;-78
2023/10/05 04:13:14;;;;;;;0.82;0.50;;;13.80;87.70;;;;;;4736440;30;20085;-78
2023/10/05 04:15:40;;;;;;;2.35;0.65;;;13.80;87.70;;;;;;4735556;30;20052;-78
2023/10/05 04:18:11;;;;;;;1.00;0.50;;;13.80;87.70;;;;;;4746545;30;20036;-78
2023/10/05 04:20:37;;;;;;;0.50;0.50;;;13.70;87.80;;;;;;4745036;30;20037;-79
2023/10/05 04:23:03;;;;;;;0.85;0.47;;;13.70;87.80;;;;;;4751577;30;20025;-79
2023/10/05 04:25:29;;;;;;;1.23;0.88;;;13.70;87.90;;;;;;4732286;30;20056;-78
2023/10/05 04:27:55;;;;;;;0.70;0.70;;;13.70;88.00;;;;;;4747080;30;20049;-79
2023/10/05 04:30:21;;;;;;;0.80;0.70;;;13.70;88.00;;;;;;4759509;30;20048;-79
2023/10/05 04:32:48;;;;;;;1.30;0.77;;;13.70;88.10;;;;;;4743560;30;20068;-79
2023/10/05 04:35:26;;;;;;;0.52;0.50;;;13.60;88.10;;;;;;4731780;30;20041;-79
2023/10/05 04:37:54;;;;;;;0.68;0.55;;;13.60;88.10;;;;;;4745231;30;20036;-78
2023/10/05 04:40:22;;;;;;;0.70;0.60;;;13.60;88.20;;;;;;4734540;30;20044;-79
2023/10/05 04:42:48;;;;;;;1.35;0.70;;;13.50;88.20;;;;;;4718537;30;20068;-79
2023/10/05 04:45:15;;;;;;;1.85;0.85;;;13.50;88.30;;;;;;4743360;30;20099;-79
2023/10/05 04:47:41;;;;;;;1.10;0.60;;;13.60;88.30;;;;;;4743507;30;20500;-78
2023/10/05 04:50:07;;;;;;;1.13;0.70;;;13.50;88.30;;;;;;4741738;30;20047;-78
2023/10/05 04:52:36;;;;;;;0.55;0.45;;;13.50;88.40;;;;;;4729769;30;20479;-78
2023/10/05 04:55:17;;;;;;;1.52;0.65;;;13.50;88.40;;;;;;4742134;30;20098;-79
2023/10/05 04:57:55;;;;;;;1.15;0.80;;;13.50;88.40;;;;;;4742303;30;20045;-78
2023/10/05 05:03:05;;;;;;;2.20;0.60;;;13.50;88.40;;;;;;4746618;30;20052;-79
2023/10/05 05:05:40;;;;;;;1.23;0.65;;;13.50;88.40;;;;;;4741476;30;20056;-79
2023/10/05 05:08:09;;;;;;;0.82;0.50;;;13.50;88.40;;;;;;4727812;30;20108;-79
2023/10/05 05:10:36;;;;;;;0.65;0.50;;;13.50;88.40;;;;;;4710314;30;20101;-77
2023/10/05 05:13:02;;;;;;;0.93;0.55;;;13.50;88.50;;;;;;4721803;30;20059;-78
2023/10/05 05:15:28;;;;;;;1.08;0.60;;;13.40;88.50;;;;;;4733675;30;20109;-76
2023/10/05 05:17:54;;;;;;;0.80;0.57;;;13.40;88.50;;;;;;4732705;30;20446;-76
2023/10/05 05:20:21;;;;;;;1.45;0.50;;;13.40;88.60;;;;;;4719642;30;20509;-77
2023/10/05 05:22:46;;;;;;;1.10;0.60;;;13.40;88.60;;;;;;4732877;30;20036;-77
2023/10/05 05:25:14;;;;;;;1.65;0.63;;;13.30;88.60;;;;;;4732583;30;20055;-76
2023/10/05 05:27:40;;;;;;;2.00;0.60;;;13.20;88.60;;;;;;4734077;30;20049;-76
2023/10/05 05:30:13;;;;;;;0.88;0.60;;;13.40;88.70;;;;;;4734532;30;20041;-76
2023/10/05 05:32:39;;;;;;;0.82;0.65;;;13.40;88.70;;;;;;4699764;30;20585;-77
2023/10/05 05:35:08;;;;;;;0.50;0.50;;;13.30;88.70;;;;;;4714566;30;20043;-77
2023/10/05 05:37:34;;;;;;;1.27;0.60;;;13.30;88.80;;;;;;4714664;30;20090;-77
2023/10/05 05:40:09;;;;;;;0.52;0.50;;;13.30;88.80;;;;;;4714912;30;20053;-77
2023/10/05 05:42:35;;;;;;;2.13;0.60;;;13.40;88.90;;;;;;4700277;30;20053;-78
2023/10/05 05:45:06;;;;;;;0.77;0.60;;;13.30;88.90;;;;;;4728935;30;20060;-79
2023/10/05 05:47:33;;;;;;;2.15;0.60;;;13.30;88.90;;;;;;4717272;30;20048;-77
2023/10/05 05:50:00;;;;;;;0.93;0.70;;;13.30;88.90;;;;;;4717208;30;20052;-77
2023/10/05 05:52:27;;;;;;;1.50;0.63;;;13.30;88.90;;;;;;4732030;30;20064;-77
2023/10/05 05:54:52;;;;;;;0.95;0.50;;;13.30;88.90;;;;;;4717004;30;20174;-77
2023/10/05 05:57:20;;;;;;;0.50;0.50;;;13.40;88.80;;;;;;4716944;30;20139;-77
2023/10/05 05:59:46;;;;;;;1.83;0.52;;;13.40;88.80;;;;;;4732231;30;20049;-77
2023/10/05 06:02:12;;;;;;;1.30;0.65;;;13.40;88.70;;;;;;4732233;30;20288;-77
2023/10/05 06:04:40;;;;;;;0.73;0.60;;;13.40;88.70;;;;;;4720156;30;20126;-77
2023/10/05 06:07:13;;;;;;;1.15;0.70;;;13.40;88.70;;;;;;4735893;30;20036;-76
2023/10/05 06:09:45;;;;;;;1.00;0.60;;;13.40;88.70;;;;;;4721809;30;20045;-77
2023/10/05 06:12:12;;;;;;;0.93;0.52;;;13.50;88.70;;;;;;4735269;30;20496;-77
2023/10/05 06:14:40;;;;;;;1.15;0.80;;;13.40;88.60;;;;;;4721644;30;20045;-77
2023/10/05 06:17:07;;;;;;;0.98;0.70;;;13.40;88.60;;;;;;4732310;30;20557;-77
2023/10/05 06:19:36;;;;;;;1.73;0.75;;;13.50;88.60;;;;;;4717715;30;20036;-77
2023/10/05 06:22:04;;;;;;;1.00;0.75;;;13.50;88.70;;;;;;4730154;30;20048;-78
2023/10/05 06:24:30;;;;;;;1.63;0.60;;;13.40;88.60;;;;;;4717757;30;20118;-77
2023/10/05 06:26:56;;;;;;;1.58;0.60;;;13.40;88.60;;;;;;4747017;30;20048;-77
2023/10/05 06:29:21;;;;;;;1.30;0.80;;;13.50;88.70;;;;;;4734300;30;20044;-77
2023/10/05 06:31:47;;;;;;;1.58;0.80;;;13.50;88.70;;;;;;4748255;30;20048;-77
2023/10/05 06:34:13;;;;;;;0.80;0.60;;;13.50;88.70;;;;;;4720413;30;20357;-79
2023/10/05 06:36:40;;;;;;;1.88;0.60;;;13.40;88.60;;;;;;4743262;30;20053;-77
2023/10/05 06:39:06;;;;;;;0.93;0.70;;;13.50;88.60;;;;;;4733997;30;20044;-79
2023/10/05 06:41:34;;;;;;;0.70;0.70;;;13.50;88.60;;;;;;4719937;30;20061;-77
2023/10/05 06:44:02;;;;;;;1.38;0.73;;;13.60;88.70;;;;;;4725857;30;20064;-77
2023/10/05 06:46:31;;;;;;;0.60;0.60;;;13.50;88.60;;;;;;4743879;30;20037;-78
2023/10/05 06:48:58;;;;;;;0.88;0.70;;;13.50;88.60;;;;;;4716307;30;20042;-77
2023/10/05 06:51:27;;;;;;;1.73;0.82;;;13.50;88.60;;;;;;4700169;30;20059;-77
2023/10/05 06:53:53;;;;;;;1.70;0.70;;;13.50;88.70;;;;;;4679647;30;20053;-77
2023/10/05 06:56:21;;;;;;;1.08;0.50;;;13.50;88.60;;;;;;4679141;30;20072;-77
2023/10/05 06:58:47;;;;;;;1.42;0.63;;;13.60;88.70;;;;;;4664569;30;20056;-77
2023/10/05 07:01:14;;;;;;;1.92;0.70;;;13.60;88.60;;;;;;4678900;30;20050;-81
2023/10/05 07:03:40;;;;;;;1.20;0.80;;;13.60;88.70;;;;;;4692235;30;20048;-76
2023/10/05 07:06:06;;;;;;;0.95;0.77;;;13.60;89.20;;;;;;4676392;30;20046;-76
2023/10/05 07:08:35;;;;;;;1.30;0.70;;;13.60;88.50;;;;;;4653406;30;20079;-76
2023/10/05 07:11:06;;;;;;;0.60;0.60;;;13.70;88.50;;;;;;4657488;30;20067;-77
2023/10/05 07:13:32;;;;;;;1.70;0.68;;;13.70;89.10;;;;;;4659778;30;20495;-76
2023/10/05 07:15:58;;;;;;;0.80;0.50;;;13.90;88.60;;;;;;4653928;30;20054;-77
2023/10/05 07:18:24;;;;;;;0.90;0.65;;;13.90;88.60;;;;;;4653083;30;20047;-75
2023/10/05 07:20:50;;;;;;;1.10;0.85;;;13.70;88.40;;;;;;4682097;30;20060;-76
2023/10/05 07:23:16;;;;;;;1.00;0.70;;;13.80;88.40;;;;;;4684382;30;20460;-77
2023/10/05 07:25:41;;;;;;;0.98;0.80;;;13.80;88.30;;;;;;4697511;30;20053;-79
2023/10/05 07:28:14;;;;;;;1.13;0.70;;;13.80;88.30;;;;;;4687350;30;20096;-77
2023/10/05 07:30:41;;;;;;;1.65;0.55;;;13.90;88.30;;;;;;4690629;30;20049;-77
2023/10/05 07:33:07;;;;;;;2.90;0.90;;;13.90;88.20;;;;;;4699998;30;20072;-76
2023/10/05 07:35:36;;;;;;;1.45;0.63;;;14.10;88.20;;;;;;4698638;30;20045;-76
2023/10/05 07:38:02;;;;;;;1.10;0.60;;;14.00;88.10;;;;;;4698881;30;20053;-76
2023/10/05 07:40:28;;;;;;;1.83;1.05;;;14.00;88.10;;;;;;4742921;30;20447;-76
2023/10/05 07:42:54;;;;;;;1.45;0.80;;;14.10;88.10;;;;;;4752232;30;20080;-76
2023/10/05 07:45:22;;;;;;;1.73;0.90;;;14.10;88.00;;;;;;4751818;30;20097;-77
2023/10/05 07:47:48;;;;;;;1.98;0.90;;;14.20;87.90;;;;;;4735632;30;20132;-79
2023/10/05 07:50:14;;;;;;;0.60;0.60;;;14.30;87.90;;;;;;4735394;30;20124;-76
2023/10/05 07:52:44;;;;;;;0.60;0.50;;;14.30;87.80;;;;;;4734626;30;20045;-76
2023/10/05 07:55:10;;;;;;;1.25;0.70;;;14.40;87.80;;;;;;4725325;30;20076;-76
2023/10/05 07:57:36;;;;;;;1.27;0.60;;;14.40;87.70;;;;;;4757290;30;20385;-76
2023/10/05 08:00:04;;;;;;;1.30;0.77;;;14.50;87.70;;;;;;4738184;30;20044;-77
2023/10/05 08:02:30;;;;;;;1.48;0.70;;;14.60;87.60;;;;;;4720673;30;20049;-75
2023/10/05 08:04:55;;;;;;;1.52;0.70;;;14.60;87.60;;;;;;4719694;30;20058;-76
2023/10/05 08:07:21;;;;;;;2.22;0.95;;;14.60;87.50;;;;;;4723325;30;20113;-78
2023/10/05 08:09:48;;;;;;;1.48;0.85;;;14.70;87.50;;;;;;4721984;30;20052;-76
2023/10/05 08:12:15;;;;;;;0.80;0.65;;;14.70;87.50;;;;;;4737196;30;20053;-77
2023/10/05 08:14:41;;;;;;;1.00;0.80;;;14.80;87.50;;;;;;4748522;30;20033;-79
2023/10/05 08:17:07;;;;;;;1.02;0.70;;;14.80;87.50;;;;;;4716179;30;20067;-77
2023/10/05 08:19:32;;;;;;;1.20;0.80;;;14.80;87.40;;;;;;4743527;30;20032;-77
2023/10/05 08:21:58;;;;;;;1.25;0.80;;;14.90;87.30;;;;;;4721801;30;20393;-77
2023/10/05 08:24:24;;;;;;;1.45;0.95;;;14.80;87.20;;;;;;4750100;30;20052;-76
2023/10/05 08:26:53;;;;;;;1.10;0.85;;;14.90;87.20;;;;;;4737403;30;20059;-76
2023/10/05 08:29:22;;;;;;;1.15;0.80;;;15.00;87.20;;;;;;4728219;30;20127;-77
2023/10/05 08:31:49;;;;;;;0.85;0.70;;;15.00;87.10;;;;;;4729872;30;20044;-75
2023/10/05 08:34:20;;;;;;;2.10;0.90;;;15.00;87.00;;;;;;4744915;30;20048;-77
2023/10/05 08:36:53;;;;;;;1.27;0.77;;;15.10;87.70;;;;;;4728759;30;20037;-77
2023/10/05 08:39:25;;;;;;;2.08;0.80;;;15.20;87.70;;;;;;4745363;30;20064;-78
2023/10/05 08:41:57;;;;;;;1.05;0.70;;;15.30;87.00;;;;;;4716152;30;20108;-77
2023/10/05 08:44:26;;;;;;;1.13;0.70;;;15.30;86.90;;;;;;4743532;30;20071;-77
2023/10/05 08:46:55;;;;;;;1.42;0.70;;;15.40;86.80;;;;;;4750557;30;20065;-76
2023/10/05 08:49:23;;;;;;;2.00;0.73;;;15.40;86.70;;;;;;4737253;30;20067;-77
2023/10/05 08:51:50;;;;;;;1.50;0.77;;;15.50;86.70;;;;;;4733040;30;20053;-75
2023/10/05 08:54:21;;;;;;;2.53;0.88;;;15.50;86.60;;;;;;4753584;30;20850;-77
2023/10/05 08:56:48;;;;;;;1.85;1.10;;;15.60;86.60;;;;;;4738362;30;20053;-77
2023/10/05 08:59:14;;;;;;;2.53;0.88;;;15.60;86.60;;;;;;4752259;30;20100;-77
2023/10/05 09:01:42;;;;;;;1.40;0.75;;;15.70;86.50;;;;;;4720125;30;20045;-77
2023/10/05 09:04:24;;;;;;;2.33;1.10;;;15.70;86.40;;;;;;4734181;30;20106;-76
2023/10/05 09:06:52;;;;;;;2.13;0.80;;;15.80;86.30;;;;;;4723870;30;20570;-75
2023/10/05 09:09:38;;;;;;;1.85;0.70;;;15.90;86.30;;;;;;4739209;30;20056;-77
2023/10/05 09:12:37;;;;;;;1.50;0.60;;;15.90;86.10;;;;;;4741595;30;20055;-77
2023/10/05 09:15:18;;;;;;;2.03;0.73;;;16.00;86.10;;;;;;4733955;30;20104;-78
2023/10/05 09:18:25;;;;;;;1.15;0.65;;;16.00;86.00;;;;;;4729712;30;20124;-78
2023/10/05 09:20:51;;;;;;;1.67;0.70;;;16.10;86.60;;;;;;4730587;30;20420;-78
2023/10/05 09:23:20;;;;;;;1.42;0.70;;;16.20;85.80;;;;;;4746360;30;20055;-76
2023/10/05 09:25:46;;;;;;;1.10;0.60;;;16.20;85.80;;;;;;4724618;30;20071;-78
2023/10/05 09:28:28;;;;;;;1.90;0.90;;;16.30;85.90;;;;;;4730258;30;20143;-78
2023/10/05 09:30:57;;;;;;;1.13;0.70;;;16.30;85.90;;;;;;4735936;30;20052;-76
2023/10/05 09:33:25;;;;;;;1.25;0.60;;;16.20;85.70;;;;;;4723234;30;20121;-77
2023/10/05 09:35:55;;;;;;;2.90;0.90;;;16.30;85.80;;;;;;4739656;30;20171;-75
2023/10/05 09:38:21;;;;;;;0.95;0.68;;;16.40;85.80;;;;;;4740130;30;20099;-77
2023/10/05 09:40:49;;;;;;;1.45;0.75;;;16.40;85.80;;;;;;4726376;30;20082;-77
2023/10/05 09:43:18;;;;;;;2.30;0.82;;;16.40;85.80;;;;;;4740926;30;20041;-77
2023/10/05 09:45:48;;;;;;;2.00;0.60;;;16.50;85.90;;;;;;4744341;30;20053;-75
2023/10/05 09:48:16;;;;;;;2.90;0.93;;;16.40;85.80;;;;;;4739484;30;20049;-76
2023/10/05 09:50:44;;;;;;;0.98;0.70;;;16.40;85.80;;;;;;4728620;30;20040;-76
2023/10/05 09:53:15;;;;;;;1.70;0.85;;;16.50;85.80;;;;;;4745042;30;20105;-79
2023/10/05 09:55:53;;;;;;;1.48;0.80;;;16.50;85.80;;;;;;4749975;30;20052;-78
2023/10/05 09:58:20;;;;;;;1.10;0.70;;;16.60;85.80;;;;;;4745341;30;20140;-77
2023/10/05 10:00:47;;;;;;;0.40;0.40;;;16.60;85.80;;;;;;4717919;30;20071;-76
2023/10/05 10:03:15;;;;;;;0.55;0.50;;;16.60;85.80;;;;;;4717179;30;20064;-74
2023/10/05 10:05:51;;;;;;;0.88;0.60;;;16.70;85.80;;;;;;4696168;30;20079;-74
2023/10/05 10:08:33;;;;;;;1.17;0.70;;;16.70;85.70;;;;;;4714476;30;20059;-76
2023/10/05 10:11:17;;;;;;;2.38;0.73;;;16.80;85.70;;;;;;4699297;30;20072;-77
2023/10/05 10:13:52;;;;;;;1.42;0.60;;;16.80;86.20;;;;;;4699619;30;20417;-76
2023/10/05 10:16:22;;;;;;;1.23;0.70;;;16.80;85.60;;;;;;4714226;30;20404;-76
2023/10/05 10:18:52;;;;;;;0.80;0.70;;;16.80;85.60;;;;;;4731762;30;20067;-76
2023/10/05 10:21:24;;;;;;;2.50;0.68;;;16.80;85.60;;;;;;4717519;30;20098;-76
2023/10/05 10:24:00;;;;;;;1.67;0.80;;;16.90;85.60;;;;;;4718639;30;20037;-73
2023/10/05 10:26:26;;;;;;;0.63;0.63;;;17.00;85.60;;;;;;4717694;30;20052;-74
2023/10/05 10:28:57;;;;;;;2.13;0.73;;;16.90;85.50;;;;;;4732140;30;20040;-74
2023/10/05 10:31:31;;;;;;;1.40;0.70;;;17.00;85.50;;;;;;4732325;30;20076;-74
2023/10/05 10:34:18;;;;;;;1.50;0.90;;;16.90;85.30;;;;;;4734543;30;20593;-76
2023/10/05 10:36:56;;;;;;;1.45;0.47;;;17.00;85.40;;;;;;4691615;30;20063;-76
2023/10/05 10:39:29;;;;;;;2.33;0.80;;;17.10;85.40;;;;;;4686779;30;20530;-80
2023/10/05 10:42:04;;;;;;;1.17;0.70;;;17.20;85.40;;;;;;4668146;30;20057;-79
2023/10/05 10:44:51;;;;;;;1.00;0.75;;;17.20;85.30;;;;;;4675281;30;20105;-79
2023/10/05 10:47:19;;;;;;;2.10;0.73;;;17.30;85.20;;;;;;4678348;30;20053;-79
2023/10/05 10:50:16;;;;;;;1.17;0.85;;;17.40;85.10;;;;;;4687924;30;20062;-79
2023/10/05 10:52:49;;;;;;;1.08;0.75;;;17.40;85.00;;;;;;4681242;30;20060;-79
2023/10/05 10:55:20;;;;;;;1.77;0.88;;;17.30;84.90;;;;;;4699601;30;20069;-78
2023/10/05 10:57:54;;;;;;;2.30;0.80;;;17.40;85.00;;;;;;4697936;30;20074;-79
2023/10/05 11:02:57;;;;;;;2.17;1.00;;;17.50;84.90;;;;;;4683104;30;20077;-78
2023/10/05 11:05:47;;;;;;;1.58;0.80;;;17.60;84.80;;;;;;4695429;30;20058;-79
2023/10/05 11:08:15;;;;;;;2.72;1.00;;;17.60;84.60;;;;;;4733868;30;20044;-79
2023/10/05 11:10:42;;;;;;;1.58;0.80;;;17.60;84.70;;;;;;4729025;30;20033;-80
2023/10/05 11:13:14;;;;;;;1.08;0.77;;;17.60;84.60;;;;;;4731743;30;20248;-79
2023/10/05 11:16:01;;;;;;;1.15;0.70;;;17.70;84.60;;;;;;4714803;30;20497;-79
2023/10/05 11:18:34;;;;;;;1.33;0.70;;;17.80;84.50;;;;;;4715141;30;20069;-78
2023/10/05 11:23:58;;;;;;;0.60;0.60;;;18.00;84.20;;;;;;4718931;30;20057;-80
2023/10/05 11:26:28;;;;;;;2.13;0.90;;;18.00;84.10;;;;;;4698353;30;20116;-79
2023/10/05 11:28:55;;;;;;;2.30;1.13;;;18.00;84.10;;;;;;4695979;30;20612;-78
2023/10/05 11:31:27;;;;;;;1.05;0.77;;;18.00;84.10;;;;;;4712186;30;20577;-79
2023/10/05 11:34:00;;;;;;;1.88;0.82;;;18.00;84.10;;;;;;4695704;30;20081;-78
2023/10/05 11:36:28;;;;;;;1.10;0.70;;;18.00;84.10;;;;;;4672223;30;20046;-77
2023/10/05 11:38:57;;;;;;;1.73;0.80;;;18.00;84.20;;;;;;4672438;30;20061;-76
2023/10/05 11:41:28;;;;;;;3.10;1.15;;;18.00;84.10;;;;;;4621827;30;20078;-77
2023/10/05 11:43:58;;;;;;;2.15;0.95;;;18.00;84.10;;;;;;4652336;30;20075;-78
2023/10/05 11:46:42;;;;;;;1.98;0.75;;;18.10;84.00;;;;;;4654633;30;20523;-79
2023/10/05 11:49:14;;;;;;;0.50;0.50;;;18.10;83.90;;;;;;4646490;30;20054;-79
2023/10/05 11:51:42;;;;;;;0.55;0.50;;;18.10;84.00;;;;;;4624460;30;20130;-79
2023/10/05 11:54:09;;;;;;;1.15;0.63;;;18.20;84.00;;;;;;4618574;30;20069;-78
2023/10/05 11:56:35;;;;;;;1.77;0.75;;;18.10;84.10;;;;;;4660852;30;20051;-78
2023/10/05 11:59:00;;;;;;;0.88;0.55;;;18.10;84.10;;;;;;4651637;30;20043;-78
2023/10/05 12:01:27;;;;;;;1.65;0.80;;;18.20;84.00;;;;;;4663955;30;20074;-78
2023/10/05 12:03:55;;;;;;;4.95;0.82;;;18.20;83.90;;;;;;4659109;30;20088;-78
2023/10/05 12:06:29;;;;;;;2.58;0.75;;;18.20;83.70;;;;;;4663171;30;20050;-79
2023/10/05 12:11:38;;;;;;;3.03;1.10;;;18.30;83.80;;;;;;4683501;30;20049;-79
2023/10/05 12:14:16;;;;;;;1.30;0.88;;;18.40;83.80;;;;;;4728323;30;20032;-77
2023/10/05 12:16:42;;;;;;;1.73;0.82;;;18.30;83.60;;;;;;4697583;30;20060;-77
2023/10/05 12:19:27;;;;;;;1.95;0.90;;;18.30;83.60;;;;;;4728566;30;20084;-78
2023/10/05 12:21:57;;;;;;;1.23;0.80;;;18.40;83.60;;;;;;4748010;30;20037;-78
2023/10/05 12:24:23;;;;;;;1.55;0.88;;;18.40;83.60;;;;;;4728336;30;20502;-78
2023/10/05 12:26:50;;;;;;;1.88;1.00;;;18.40;83.50;;;;;;4744742;30;20044;-77
2023/10/05 12:29:17;;;;;;;1.58;0.90;;;18.50;83.40;;;;;;4720349;30;20142;-79
2023/10/05 12:31:44;;;;;;;2.58;1.00;;;18.60;83.40;;;;;;4734487;30;20135;-78
2023/10/05 12:34:23;;;;;;;1.50;0.90;;;18.40;83.40;;;;;;4755680;30;20052;-79
2023/10/05 12:36:49;;;;;;;1.40;1.00;;;18.40;83.50;;;;;;4714026;30;20496;-79
2023/10/05 12:39:17;;;;;;;1.50;0.90;;;18.40;83.50;;;;;;4731724;30;20045;-79
2023/10/05 12:41:44;;;;;;;1.08;0.80;;;18.30;84.30;;;;;;4757838;30;20115;-78
2023/10/05 12:44:14;;;;;;;2.00;0.82;;;18.20;83.60;;;;;;4732177;30;20033;-78
2023/10/05 12:46:41;;;;;;;2.30;0.93;;;18.20;83.70;;;;;;4721118;30;20157;-77
2023/10/05 12:49:08;;;;;;;3.53;1.10;;;18.20;83.80;;;;;;4721495;30;20416;-77
2023/10/05 12:51:36;;;;;;;1.20;0.80;;;18.20;84.50;;;;;;4733824;30;20040;-76
2023/10/05 12:54:05;;;;;;;1.10;0.60;;;18.20;83.90;;;;;;4772815;30;20079;-76
2023/10/05 12:56:30;;;;;;;0.70;0.63;;;18.20;83.90;;;;;;4749785;30;20518;-77
2023/10/05 12:58:56;;;;;;;1.27;0.85;;;18.20;83.90;;;;;;4726284;30;20036;-76
2023/10/05 13:01:26;;;;;;;0.75;0.50;;;18.10;83.80;;;;;;4769049;30;20044;-75
2023/10/05 13:03:52;;;;;;;1.23;0.73;;;18.30;84.30;;;;;;4767367;30;20153;-74
2023/10/05 13:06:18;;;;;;;1.20;0.63;;;18.30;84.10;;;;;;4748080;30;20052;-75
2023/10/05 13:08:43;;;;;;;0.65;0.50;;;18.40;83.40;;;;;;4749435;30;20056;-75
2023/10/05 13:11:11;;;;;;;0.75;0.60;;;18.40;83.20;;;;;;4768004;30;20052;-75
2023/10/05 13:13:39;;;;;;;2.50;0.80;;;18.40;83.20;;;;;;4751998;30;20095;-76
2023/10/05 13:16:13;;;;;;;1.63;0.90;;;18.40;83.30;;;;;;4768593;30;20071;-75
2023/10/05 13:18:42;;;;;;;1.83;0.90;;;18.40;83.30;;;;;;4750222;30;20044;-76